Nyala, Nevada Weather observations

Data are for observation ending at time listed.
 Day   Time    Ave.   Ave.  Ave.  Vector   Max.   Stn.    Total    Solar   Ave.  
  of    of     Air    Rel.  Wind   Wind    Wind   Baro.  Precip.   Rad.    Soil  
Year   Day     Temp.  Hum.  Speed  Dir.    Gust   Pres.                    Temp. 
2016   (PST)    F      %     mph   deg.    mph     mb.     in.     W/m2     F   
------------------------------------------------------------------------------
 238    0:00   71.5    12    2.8    53     10.4    852     0.00       0    82.9
 238    1:00   67.6    15    1.9   104      6.0    853     0.00       0    81.6
 238    2:00   64.7    16    2.0   101      6.6    852     0.00       0    80.4
 238    3:00   55.9    31    3.8   208      7.7    852     0.00       0    79.2
 238    4:00   53.5    30    1.3    58      4.2    852     0.00       0    77.9
 238    5:00   52.6    31    3.1   158      5.6    853     0.00       0    76.5
 238    6:00   50.7    36    1.6   180      3.7    853     0.00       7    75.2
 238    7:00   58.1    31    1.4   242      3.7    854     0.00      67    74.1
 238    8:00   65.1    21    1.9   237      5.5    854     0.00     114    73.6
 238    9:00   70.5    17    1.8   260      5.5    854     0.00     199    73.8
 238   10:00   74.8    17    1.3   211      4.5    853     0.00     186    74.8
 238   11:00   77.1    16    2.4   206      5.2    853     0.00     188    76.2
 238   12:00   80.8    12    1.5   322      5.6    852     0.00     226    77.7
 238   13:00   81.7    12    6.3     7     15.1    852     0.00     212    79.4
 238   14:00   81.0    17    5.5   350     15.3    851     0.00     121    81.5
 238   15:00   84.5    16   10.4    96     23.2    850     0.00     320    82.3
 238   16:00   86.6    15    4.0   132     17.0    849     0.00     220    84.1
 238   17:00   86.2    15    4.3   168     14.3    849     0.00     138    86.6
 238   18:00   83.2    19    3.2   173      7.6    849     0.00      54    87.9
 238   19:00   78.1    18    2.1   115      5.5    849     0.00       4    87.5
 238   20:00   69.3    29    3.6   176      7.7    850     0.00       0    85.9
 238   21:00   75.5    20    7.1   144     13.2    850     0.00       0    84.0
 238   22:00   70.7    24    5.6   190     10.4    850     0.00       0    82.5

Return to Nyala, Nevada graphs page.


Western Regional Climate Center,wrcc@dri.edu